createdAt,value
2023-01-11T00:01:57.493Z,7.90
2023-01-11T00:04:30.720Z,7.90
2023-01-11T00:07:00.171Z,7.90
2023-01-11T00:09:44.875Z,7.90
2023-01-11T00:12:14.383Z,7.90
2023-01-11T00:14:44.611Z,7.90
2023-01-11T00:17:12.760Z,7.90
2023-01-11T00:19:40.783Z,7.90
2023-01-11T00:22:09.289Z,8.00
2023-01-11T00:24:37.348Z,7.90
2023-01-11T00:27:07.038Z,8.00
2023-01-11T00:29:35.351Z,8.10
2023-01-11T00:32:03.660Z,8.10
2023-01-11T00:34:32.382Z,8.10
2023-01-11T00:37:00.641Z,8.00
2023-01-11T00:39:28.942Z,8.10
2023-01-11T00:42:14.553Z,8.10
2023-01-11T00:45:01.442Z,8.20
2023-01-11T00:47:43.393Z,8.20
2023-01-11T00:50:15.333Z,8.10
2023-01-11T00:52:43.992Z,8.10
2023-01-11T00:55:12.770Z,8.10
2023-01-11T00:57:40.938Z,8.10
2023-01-11T01:00:12.289Z,8.10
2023-01-11T01:02:41.210Z,8.10
2023-01-11T01:05:10.187Z,8.10
2023-01-11T01:07:38.668Z,8.10
2023-01-11T01:10:11.824Z,8.10
2023-01-11T01:12:57.920Z,8.10
2023-01-11T01:15:28.232Z,8.10
2023-01-11T01:17:57.167Z,8.10
2023-01-11T01:20:26.806Z,8.10
2023-01-11T01:22:55.065Z,8.10
2023-01-11T01:25:25.173Z,8.10
2023-01-11T01:27:53.174Z,8.10
2023-01-11T01:30:21.423Z,8.10
2023-01-11T01:32:50.978Z,8.20
2023-01-11T01:35:19.123Z,8.20
2023-01-11T01:37:47.628Z,8.20
2023-01-11T01:40:16.292Z,8.30
2023-01-11T01:42:44.482Z,8.30
2023-01-11T01:45:23.782Z,8.30
2023-01-11T01:47:58.160Z,8.30
2023-01-11T01:50:31.966Z,8.30
2023-01-11T01:53:04.349Z,8.20
2023-01-11T01:55:36.974Z,8.20
2023-01-11T01:58:08.979Z,8.20
2023-01-11T02:00:42.334Z,8.20
2023-01-11T02:03:17.635Z,8.10
2023-01-11T02:05:46.476Z,8.20
2023-01-11T02:08:27.469Z,8.20
2023-01-11T02:10:57.701Z,8.10
2023-01-11T02:13:26.859Z,8.10
2023-01-11T02:16:08.578Z,8.10
2023-01-11T02:18:39.315Z,8.10
2023-01-11T02:21:20.081Z,8.10
2023-01-11T02:24:11.657Z,8.10
2023-01-11T02:27:16.442Z,8.10
2023-01-11T02:29:58.688Z,8.10
2023-01-11T02:32:32.852Z,8.10
2023-01-11T02:35:12.569Z,8.10
2023-01-11T02:37:51.118Z,8.10
2023-01-11T02:40:26.776Z,8.10
2023-01-11T02:43:19.167Z,8.10
2023-01-11T02:45:53.571Z,8.20
2023-01-11T02:48:29.665Z,8.20
2023-01-11T02:51:04.931Z,8.20
2023-01-11T02:53:40.006Z,8.30
2023-01-11T02:56:11.929Z,8.20
2023-01-11T02:58:44.794Z,8.30
2023-01-11T03:01:14.793Z,8.30
2023-01-11T03:03:43.001Z,8.30
2023-01-11T03:06:16.501Z,8.30
2023-01-11T03:09:06.178Z,8.30
2023-01-11T03:12:06.345Z,8.30
2023-01-11T03:14:42.871Z,8.40
2023-01-11T03:17:24.890Z,8.40
2023-01-11T03:19:57.251Z,8.40
2023-01-11T03:22:32.773Z,8.40
2023-01-11T03:25:10.143Z,8.40
2023-01-11T03:27:48.226Z,8.50
2023-01-11T03:30:23.350Z,8.40
2023-01-11T03:32:59.891Z,8.50
2023-01-11T03:35:31.490Z,8.50
2023-01-11T03:38:04.243Z,8.50
2023-01-11T03:40:36.100Z,8.60
2023-01-11T03:43:14.123Z,8.60
2023-01-11T03:45:52.622Z,8.70
2023-01-11T03:48:26.912Z,8.60
2023-01-11T03:50:57.575Z,8.60
2023-01-11T03:53:28.785Z,8.70
2023-01-11T03:55:59.125Z,8.70
2023-01-11T03:58:29.902Z,8.70
2023-01-11T04:00:59.568Z,8.70
2023-01-11T04:03:29.498Z,8.70
2023-01-11T04:06:01.036Z,8.70
2023-01-11T04:08:29.384Z,8.70
2023-01-11T04:10:57.709Z,8.70
2023-01-11T04:13:26.051Z,8.70
2023-01-11T04:15:54.688Z,8.70
2023-01-11T04:18:22.722Z,8.70
2023-01-11T04:20:52.468Z,8.70
2023-01-11T04:23:20.720Z,8.60
2023-01-11T04:25:51.603Z,8.70
2023-01-11T04:28:19.567Z,8.70
2023-01-11T04:30:47.747Z,8.70
2023-01-11T04:33:15.811Z,8.70
2023-01-11T04:35:44.815Z,8.80
2023-01-11T04:38:14.410Z,8.80
2023-01-11T04:40:43.269Z,8.80
2023-01-11T04:43:10.648Z,8.80
2023-01-11T04:45:38.953Z,8.90
2023-01-11T04:48:07.846Z,8.90
2023-01-11T04:50:36.240Z,8.90
2023-01-11T04:53:04.683Z,8.90
2023-01-11T04:55:34.409Z,8.90
2023-01-11T04:58:02.675Z,9.00
2023-01-11T05:00:30.963Z,9.00
2023-01-11T05:03:00.393Z,9.00
2023-01-11T05:05:29.556Z,9.00
2023-01-11T05:07:57.964Z,9.00
2023-01-11T05:10:26.471Z,9.00
2023-01-11T05:12:56.253Z,9.00
2023-01-11T05:15:24.418Z,8.90
2023-01-11T05:17:52.563Z,8.90
2023-01-11T05:20:20.648Z,8.90
2023-01-11T05:22:49.627Z,8.90
2023-01-11T05:25:18.069Z,8.90
2023-01-11T05:27:46.382Z,8.80
2023-01-11T05:30:16.335Z,8.80
2023-01-11T05:32:44.518Z,8.90
2023-01-11T05:35:12.651Z,8.80
2023-01-11T05:37:41.471Z,8.80
2023-01-11T05:40:11.470Z,8.80
2023-01-11T05:42:39.669Z,8.90
2023-01-11T05:45:26.755Z,8.90
2023-01-11T05:47:56.978Z,8.90
2023-01-11T05:50:25.603Z,8.90
2023-01-11T05:52:54.155Z,8.90
2023-01-11T05:55:22.457Z,8.90
2023-01-11T05:57:51.520Z,8.90
2023-01-11T06:00:25.068Z,8.90
2023-01-11T06:02:53.552Z,8.90
2023-01-11T06:05:23.210Z,8.90
2023-01-11T06:07:52.561Z,9.00
2023-01-11T06:10:20.713Z,9.00
2023-01-11T06:13:13.300Z,9.00
2023-01-11T06:15:44.353Z,9.00
2023-01-11T06:18:12.324Z,9.00
2023-01-11T06:20:41.872Z,9.00
2023-01-11T06:23:10.249Z,9.00
2023-01-11T06:25:38.315Z,9.10
2023-01-11T06:28:06.480Z,9.10
2023-01-11T06:30:34.418Z,9.10
2023-01-11T06:33:05.795Z,9.10
2023-01-11T06:35:38.104Z,9.20
2023-01-11T06:38:08.951Z,9.20
2023-01-11T06:40:37.299Z,9.20
2023-01-11T06:43:05.264Z,9.30
2023-01-11T06:45:33.508Z,9.30
2023-01-11T06:48:01.813Z,9.30
2023-01-11T06:50:29.768Z,9.30
2023-01-11T06:52:59.150Z,9.30
2023-01-11T06:55:30.017Z,9.30
2023-01-11T06:57:58.410Z,9.30
2023-01-11T07:00:26.447Z,9.30
2023-01-11T07:02:54.430Z,9.30
2023-01-11T07:05:22.536Z,9.30
2023-01-11T07:07:50.581Z,9.40
2023-01-11T07:10:18.560Z,9.40
2023-01-11T07:12:47.815Z,9.40
2023-01-11T07:15:15.722Z,9.50
2023-01-11T07:17:43.593Z,9.50
2023-01-11T07:20:16.111Z,9.50
2023-01-11T07:22:43.944Z,9.50
2023-01-11T07:25:12.096Z,9.40
2023-01-11T07:27:42.698Z,9.40
2023-01-11T07:30:13.251Z,9.40
2023-01-11T07:32:44.733Z,9.40
2023-01-11T07:35:12.601Z,9.40
2023-01-11T07:37:41.497Z,9.40
2023-01-11T07:40:11.207Z,9.40
2023-01-11T07:42:56.822Z,9.40
2023-01-11T07:45:31.563Z,9.40
2023-01-11T07:48:11.060Z,9.40
2023-01-11T07:50:44.996Z,9.40
2023-01-11T07:53:15.470Z,9.40
2023-01-11T07:55:43.867Z,9.40
2023-01-11T07:58:13.726Z,9.40
2023-01-11T08:00:43.450Z,9.40
2023-01-11T08:03:11.792Z,9.40
2023-01-11T08:05:40.571Z,9.40
2023-01-11T08:08:12.048Z,9.40
2023-01-11T08:10:42.682Z,9.40
2023-01-11T08:13:31.072Z,9.50
2023-01-11T08:16:04.396Z,9.50
2023-01-11T08:18:33.126Z,9.50
2023-01-11T08:21:01.658Z,9.50
2023-01-11T08:23:31.655Z,9.60
2023-01-11T08:26:00.361Z,9.60
2023-01-11T08:28:30.618Z,9.60
2023-01-11T08:31:03.400Z,9.60
2023-01-11T08:33:35.910Z,9.60
2023-01-11T08:36:06.264Z,9.60
2023-01-11T08:38:34.299Z,9.50
2023-01-11T08:41:02.484Z,9.50
2023-01-11T08:43:31.573Z,9.50
2023-01-11T08:46:00.850Z,9.50
2023-01-11T08:48:28.727Z,9.40
2023-01-11T08:50:58.639Z,9.40
2023-01-11T08:53:26.965Z,9.50
2023-01-11T08:55:55.177Z,9.50
2023-01-11T08:58:26.495Z,9.50
2023-01-11T09:00:54.915Z,9.50
2023-01-11T09:03:24.583Z,9.50
2023-01-11T09:05:53.944Z,9.50
2023-01-11T09:08:21.862Z,9.50
2023-01-11T09:10:49.742Z,9.60
2023-01-11T09:13:17.788Z,9.60
2023-01-11T09:15:46.748Z,9.60
2023-01-11T09:18:16.062Z,9.70
2023-01-11T09:20:45.382Z,9.70
2023-01-11T09:23:13.268Z,9.70
2023-01-11T09:25:41.218Z,9.80
2023-01-11T09:28:09.287Z,9.80
2023-01-11T09:30:39.114Z,9.80
2023-01-11T09:33:11.749Z,9.90
2023-01-11T09:35:42.573Z,9.90
2023-01-11T09:38:11.892Z,9.80
2023-01-11T09:40:50.227Z,9.80
2023-01-11T09:43:20.382Z,9.90
2023-01-11T09:45:51.930Z,9.80
2023-01-11T09:48:28.839Z,9.80
2023-01-11T09:51:07.329Z,9.80
2023-01-11T09:53:42.878Z,9.80
2023-01-11T09:56:17.073Z,9.80
2023-01-11T09:59:00.778Z,9.80
2023-01-11T10:01:45.609Z,9.80
2023-01-11T10:04:36.677Z,9.70
2023-01-11T10:07:24.616Z,9.70
2023-01-11T10:18:40.364Z,9.80
2023-01-11T10:19:31.655Z,9.70
2023-01-11T10:22:00.389Z,9.80
2023-01-11T10:24:33.586Z,9.80
2023-01-11T10:27:05.912Z,9.80
2023-01-11T10:29:49.745Z,9.80
2023-01-11T10:32:34.639Z,9.80
2023-01-11T10:35:29.949Z,9.80
2023-01-11T10:38:20.255Z,9.80
2023-01-11T10:41:08.303Z,9.90
2023-01-11T10:43:43.207Z,9.90
2023-01-11T10:46:16.531Z,9.90
2023-01-11T10:48:45.618Z,10.00
2023-01-11T10:51:24.774Z,9.90
2023-01-11T10:54:01.681Z,10.00
2023-01-11T10:57:02.351Z,10.00
2023-01-11T10:59:52.415Z,10.00
2023-01-11T11:02:38.589Z,10.00
2023-01-11T11:05:20.428Z,10.00
2023-01-11T11:07:55.525Z,10.10
2023-01-11T11:10:30.724Z,10.10
2023-01-11T11:13:23.468Z,10.10
2023-01-11T11:16:02.165Z,10.20
2023-01-11T11:18:30.191Z,10.20
2023-01-11T11:21:05.103Z,10.20
2023-01-11T11:23:34.117Z,10.30
2023-01-11T11:26:05.493Z,10.40
2023-01-11T11:28:34.409Z,10.50
2023-01-11T11:31:07.088Z,10.50
2023-01-11T11:33:37.031Z,10.60
2023-01-11T11:36:07.898Z,10.60
2023-01-11T11:38:38.114Z,10.70
2023-01-11T11:41:08.474Z,10.70
2023-01-11T11:43:38.010Z,10.60
2023-01-11T11:46:28.411Z,10.70
2023-01-11T11:49:13.347Z,10.60
2023-01-11T11:51:43.183Z,10.60
2023-01-11T11:54:20.237Z,10.60
2023-01-11T11:56:49.342Z,10.60
2023-01-11T11:59:20.929Z,10.70
2023-01-11T12:01:59.139Z,10.70
2023-01-11T12:04:38.966Z,10.70
2023-01-11T12:07:09.863Z,10.80
2023-01-11T12:09:45.492Z,10.80
2023-01-11T12:12:18.257Z,10.80
2023-01-11T12:15:09.048Z,10.80
2023-01-11T12:17:38.613Z,10.80
2023-01-11T12:20:34.392Z,10.80
2023-01-11T12:23:18.580Z,10.80
2023-01-11T12:26:15.830Z,10.90
2023-01-11T12:29:15.259Z,10.90
2023-01-11T12:32:05.955Z,10.90
2023-01-11T12:35:05.202Z,10.90
2023-01-11T12:37:54.921Z,10.90
2023-01-11T12:40:33.442Z,11.00
2023-01-11T12:43:28.521Z,11.00
2023-01-11T12:46:06.131Z,11.00
2023-01-11T12:48:46.941Z,11.00
2023-01-11T12:51:28.080Z,11.00
2023-01-11T12:54:06.349Z,11.00
2023-01-11T12:56:59.555Z,11.00
2023-01-11T12:59:51.810Z,11.00
2023-01-11T13:02:37.923Z,11.00
2023-01-11T13:05:19.915Z,11.00
2023-01-11T13:08:03.572Z,10.90
2023-01-11T13:10:41.083Z,10.90
2023-01-11T13:13:15.888Z,11.00
2023-01-11T13:15:53.611Z,11.00
2023-01-11T13:18:29.508Z,11.00
2023-01-11T13:21:03.276Z,11.00
2023-01-11T13:23:40.291Z,10.90
2023-01-11T13:26:18.112Z,10.90
2023-01-11T13:28:50.232Z,10.90
2023-01-11T13:31:19.808Z,10.90
2023-01-11T13:33:53.105Z,10.90
2023-01-11T13:36:28.275Z,10.90
2023-01-11T13:39:02.995Z,11.00
2023-01-11T13:41:46.469Z,11.10
2023-01-11T13:44:23.243Z,11.20
2023-01-11T13:47:00.763Z,11.20
2023-01-11T13:49:52.761Z,11.30
2023-01-11T13:52:26.541Z,11.30
2023-01-11T13:55:11.220Z,11.40
2023-01-11T13:57:48.894Z,11.40
2023-01-11T14:00:23.202Z,11.50
2023-01-11T14:02:56.683Z,11.50
2023-01-11T14:05:25.280Z,11.60
2023-01-11T14:08:08.152Z,11.60
2023-01-11T14:10:48.836Z,11.60
2023-01-11T14:14:04.235Z,11.60
2023-01-11T14:16:40.484Z,11.60
2023-01-11T14:19:21.711Z,11.50
2023-01-11T14:22:09.670Z,11.60
2023-01-11T14:24:42.164Z,11.50
2023-01-11T14:27:35.802Z,11.50
2023-01-11T14:30:42.071Z,11.50
2023-01-11T14:33:32.448Z,11.50
2023-01-11T14:36:29.236Z,11.40
2023-01-11T14:39:52.307Z,11.30
2023-01-11T14:42:51.541Z,11.30
2023-01-11T14:45:43.301Z,11.20
2023-01-11T14:48:27.898Z,11.20
2023-01-11T14:51:23.804Z,11.20
2023-01-11T14:53:58.048Z,11.10
2023-01-11T14:56:50.062Z,11.00
2023-01-11T14:59:35.970Z,11.00
2023-01-11T15:02:26.389Z,11.00
2023-01-11T15:05:38.703Z,10.90
2023-01-11T15:08:31.007Z,10.90
2023-01-11T15:11:00.670Z,10.90
2023-01-11T15:13:34.725Z,10.80
2023-01-11T15:16:27.203Z,10.80
2023-01-11T15:18:57.204Z,10.80
2023-01-11T15:21:28.071Z,10.80
2023-01-11T15:23:58.603Z,10.70
2023-01-11T15:26:28.074Z,10.70
2023-01-11T15:28:58.081Z,10.60
2023-01-11T15:31:34.236Z,10.60
2023-01-11T15:34:17.949Z,10.50
2023-01-11T15:36:56.794Z,10.40
2023-01-11T15:39:34.306Z,10.30
2023-01-11T15:42:31.361Z,10.30
2023-01-11T15:45:33.128Z,10.20
2023-01-11T15:48:19.695Z,10.20
2023-01-11T15:51:21.842Z,10.10
2023-01-11T16:04:00.830Z,10.10
2023-01-11T16:06:41.015Z,10.10
2023-01-11T16:09:37.060Z,10.00
2023-01-11T16:12:20.558Z,9.90
2023-01-11T16:15:26.244Z,9.80
2023-01-11T16:17:55.105Z,9.70
2023-01-11T16:20:28.870Z,9.70
2023-01-11T16:23:01.509Z,9.70
2023-01-11T16:25:32.338Z,9.70
2023-01-11T16:28:01.906Z,9.70
2023-01-11T16:30:30.527Z,9.70
2023-01-11T16:33:22.872Z,9.70
2023-01-11T16:35:50.814Z,9.60
2023-01-11T16:38:23.167Z,9.60
2023-01-11T16:40:54.087Z,9.60
2023-01-11T16:43:25.742Z,9.50
2023-01-11T16:45:55.145Z,9.50
2023-01-11T16:48:24.440Z,9.40
2023-01-11T16:51:02.784Z,9.40
2023-01-11T16:53:34.304Z,9.40
2023-01-11T16:56:06.257Z,9.40
2023-01-11T16:58:35.807Z,9.30
2023-01-11T17:01:06.398Z,9.20
2023-01-11T17:03:37.558Z,9.10
2023-01-11T17:06:29.969Z,9.00
2023-01-11T17:09:00.013Z,8.90
2023-01-11T17:11:32.494Z,8.90
2023-01-11T17:14:17.364Z,8.80
2023-01-11T17:16:48.337Z,8.70
2023-01-11T17:19:19.164Z,8.60
2023-01-11T17:21:49.196Z,8.60
2023-01-11T17:24:23.941Z,8.50
2023-01-11T17:26:54.742Z,8.50
2023-01-11T17:29:28.435Z,8.50
2023-01-11T17:31:57.909Z,8.40
2023-01-11T17:34:35.436Z,8.50
2023-01-11T17:37:10.441Z,8.50
2023-01-11T17:39:47.133Z,8.50
2023-01-11T17:42:34.032Z,8.40
2023-01-11T17:45:14.480Z,8.40
2023-01-11T17:47:46.705Z,8.30
2023-01-11T17:50:25.258Z,8.20
2023-01-11T17:53:01.888Z,8.20
2023-01-11T17:55:31.428Z,8.10
2023-01-11T17:58:19.938Z,8.00
2023-01-11T18:01:11.469Z,8.00
2023-01-11T18:03:44.951Z,7.80
2023-01-11T18:06:15.169Z,7.70
2023-01-11T18:08:48.395Z,7.70
2023-01-11T18:11:27.377Z,7.50
2023-01-11T18:13:58.560Z,7.40
2023-01-11T18:16:27.140Z,7.30
2023-01-11T18:18:57.380Z,7.20
2023-01-11T18:21:51.187Z,7.20
2023-01-11T18:24:43.331Z,7.10
2023-01-11T18:27:28.415Z,7.10
2023-01-11T18:29:58.188Z,7.00
2023-01-11T18:32:27.912Z,7.00
2023-01-11T18:34:56.253Z,6.90
2023-01-11T18:37:24.111Z,7.00
2023-01-11T18:39:53.130Z,7.00
2023-01-11T18:42:28.387Z,7.10
2023-01-11T18:44:56.481Z,7.00
2023-01-11T18:47:26.481Z,7.00
2023-01-11T18:49:55.055Z,7.00
2023-01-11T18:52:27.955Z,7.00
2023-01-11T18:54:56.837Z,6.90
2023-01-11T18:57:28.554Z,6.90
2023-01-11T18:59:56.782Z,6.80
2023-01-11T19:02:28.946Z,6.80
2023-01-11T19:04:58.066Z,6.90
2023-01-11T19:07:27.344Z,6.90
2023-01-11T19:09:59.339Z,6.90
2023-01-11T19:12:28.876Z,6.90
2023-01-11T19:14:58.189Z,6.90
2023-01-11T19:17:28.611Z,7.00
2023-01-11T19:19:56.708Z,7.10
2023-01-11T19:22:27.027Z,7.20
2023-01-11T19:24:55.273Z,7.30
2023-01-11T19:27:28.292Z,7.40
2023-01-11T19:29:59.727Z,7.50
2023-01-11T19:32:27.691Z,7.60
2023-01-11T19:34:58.146Z,7.70
2023-01-11T19:37:27.105Z,7.90
2023-01-11T19:39:55.289Z,8.10
2023-01-11T19:42:23.887Z,8.20
2023-01-11T19:44:52.700Z,8.30
2023-01-11T19:47:22.514Z,8.40
2023-01-11T19:49:56.553Z,8.30
2023-01-11T19:52:26.581Z,8.30
2023-01-11T19:54:55.108Z,8.20
2023-01-11T19:57:23.492Z,8.20
2023-01-11T19:59:52.027Z,8.20
2023-01-11T20:02:23.008Z,8.20
2023-01-11T20:04:54.302Z,8.10
2023-01-11T20:07:22.436Z,8.20
2023-01-11T20:09:50.925Z,8.10
2023-01-11T20:12:21.495Z,8.10
2023-01-11T20:14:49.760Z,8.00
2023-01-11T20:17:22.480Z,8.00
2023-01-11T20:19:54.515Z,7.90
2023-01-11T20:22:23.227Z,7.90
2023-01-11T20:24:51.593Z,7.90
2023-01-11T20:27:19.898Z,7.80
2023-01-11T20:29:47.988Z,7.80
2023-01-11T20:32:39.279Z,7.70
2023-01-11T20:35:11.884Z,7.60
2023-01-11T20:37:40.124Z,7.50
2023-01-11T20:40:11.800Z,7.50
2023-01-11T20:42:40.590Z,7.50
2023-01-11T20:45:14.799Z,7.50
2023-01-11T20:47:42.921Z,7.40
2023-01-11T20:50:12.656Z,7.30
2023-01-11T20:52:40.591Z,7.20
2023-01-11T20:55:10.093Z,7.20
2023-01-11T20:57:38.762Z,7.10
2023-01-11T21:02:37.930Z,7.00
2023-01-11T21:05:10.687Z,6.90
2023-01-11T21:07:40.384Z,6.80
2023-01-11T21:10:12.486Z,6.70
2023-01-11T21:12:42.979Z,6.60
2023-01-11T21:15:14.054Z,6.50
2023-01-11T21:17:42.154Z,6.50
2023-01-11T21:20:11.632Z,6.50
2023-01-11T21:22:41.165Z,6.60
2023-01-11T21:25:10.175Z,6.70
2023-01-11T21:27:38.993Z,6.60
2023-01-11T21:30:08.388Z,6.60
2023-01-11T21:32:36.479Z,6.50
2023-01-11T21:35:04.822Z,6.60
2023-01-11T21:37:33.143Z,6.70
2023-01-11T21:40:02.732Z,6.80
2023-01-11T21:42:33.483Z,6.80
2023-01-11T21:45:01.728Z,6.80
2023-01-11T21:47:29.858Z,6.70
2023-01-11T21:49:58.339Z,6.70
2023-01-11T21:52:26.582Z,6.70
2023-01-11T21:54:54.975Z,6.70
2023-01-11T21:57:27.128Z,6.70
2023-01-11T21:59:56.632Z,6.70
2023-01-11T22:02:24.793Z,6.70
2023-01-11T22:04:57.766Z,6.60
2023-01-11T22:07:32.107Z,6.70
2023-01-11T22:10:10.843Z,6.60
2023-01-11T22:12:40.697Z,6.70
2023-01-11T22:15:14.022Z,6.70
2023-01-11T22:17:42.520Z,6.60
2023-01-11T22:20:17.610Z,6.70
2023-01-11T22:22:46.094Z,6.70
2023-01-11T22:25:17.501Z,6.70
2023-01-11T22:27:47.177Z,6.70
2023-01-11T22:30:15.859Z,6.70
2023-01-11T22:32:44.258Z,6.80
2023-01-11T22:35:14.754Z,6.90
2023-01-11T22:37:42.988Z,7.00
2023-01-11T22:40:12.239Z,7.00
2023-01-11T22:42:40.203Z,7.10
2023-01-11T22:45:11.516Z,7.10
2023-01-11T22:47:41.514Z,7.20
2023-01-11T22:50:10.891Z,7.20
2023-01-11T22:52:39.948Z,7.20
2023-01-11T22:55:10.039Z,7.20
2023-01-11T22:57:38.223Z,7.10
2023-01-11T23:00:12.517Z,7.10
2023-01-11T23:02:40.631Z,7.00
2023-01-11T23:05:09.094Z,7.00
2023-01-11T23:07:37.181Z,7.00
2023-01-11T23:10:08.662Z,7.00
2023-01-11T23:12:54.033Z,7.00
2023-01-11T23:15:23.669Z,7.00
2023-01-11T23:17:51.873Z,7.00
2023-01-11T23:20:19.982Z,7.10
2023-01-11T23:22:51.110Z,7.20
2023-01-11T23:25:19.347Z,7.20
2023-01-11T23:27:47.337Z,7.30
2023-01-11T23:30:15.632Z,7.30
2023-01-11T23:32:44.937Z,7.30
2023-01-11T23:35:12.861Z,7.40
2023-01-11T23:37:40.708Z,7.40
2023-01-11T23:40:10.280Z,7.50
2023-01-11T23:42:38.447Z,7.50
2023-01-11T23:45:07.422Z,7.40
2023-01-11T23:47:34.279Z,7.40
2023-01-11T23:50:03.792Z,7.30
2023-01-11T23:52:33.489Z,7.40
2023-01-11T23:55:01.645Z,7.40
2023-01-11T23:57:29.554Z,7.40
2023-01-11T23:59:57.631Z,7.40
